Terminal Aerodrome Forecast
Issued by NWS

Home | Current Version | Previous Version | Graphics & Text | Print | Product List | Glossary On
Versions: 1 2 3 4 5 6 7 8 9 10 11 12 13 14 15 16 17 18 19 20
000
FTUS43 KGRB 181100
TAFCWA
TAF
KCWA 181130Z 1812/1912 06009KT P6SM SKC
     FM181500 09012G18KT P6SM SCT200
     FM190100 10008KT P6SM BKN150
     FM190700 11008KT P6SM BKN060 OVC150 WS012/14040KT=

USA.gov is the U.S. government's official web portal to all federal, state and local government web resources and services.